sensor_id;sensor_type;location;lat;lon;timestamp;P1;durP1;ratioP1;P2;durP2;ratioP2
45198;SDS011;30941;46.422;18.772;2023-08-06T00:01:23;18.90;;;12.23;;
45198;SDS011;30941;46.422;18.772;2023-08-06T00:03:49;14.98;;;12.88;;
45198;SDS011;30941;46.422;18.772;2023-08-06T00:06:14;15.27;;;12.68;;
45198;SDS011;30941;46.422;18.772;2023-08-06T00:08:39;17.23;;;12.50;;
45198;SDS011;30941;46.422;18.772;2023-08-06T00:11:05;16.42;;;11.85;;
45198;SDS011;30941;46.422;18.772;2023-08-06T00:13:30;15.00;;;11.98;;
45198;SDS011;30941;46.422;18.772;2023-08-06T00:15:55;14.55;;;12.20;;
45198;SDS011;30941;46.422;18.772;2023-08-06T00:18:21;15.32;;;11.32;;
45198;SDS011;30941;46.422;18.772;2023-08-06T00:20:46;15.50;;;10.98;;
45198;SDS011;30941;46.422;18.772;2023-08-06T00:23:12;15.65;;;11.10;;
45198;SDS011;30941;46.422;18.772;2023-08-06T00:25:37;13.90;;;10.63;;
45198;SDS011;30941;46.422;18.772;2023-08-06T00:28:02;21.08;;;11.25;;
45198;SDS011;30941;46.422;18.772;2023-08-06T00:30:28;13.25;;;9.35;;
45198;SDS011;30941;46.422;18.772;2023-08-06T00:32:53;13.43;;;9.55;;
45198;SDS011;30941;46.422;18.772;2023-08-06T00:35:19;10.10;;;7.10;;
45198;SDS011;30941;46.422;18.772;2023-08-06T00:37:44;10.10;;;7.07;;
45198;SDS011;30941;46.422;18.772;2023-08-06T00:40:10;9.30;;;6.93;;
45198;SDS011;30941;46.422;18.772;2023-08-06T00:42:35;9.23;;;6.80;;
45198;SDS011;30941;46.422;18.772;2023-08-06T00:45:01;13.75;;;6.82;;
45198;SDS011;30941;46.422;18.772;2023-08-06T00:47:27;10.13;;;7.13;;
45198;SDS011;30941;46.422;18.772;2023-08-06T00:49:52;11.75;;;7.00;;
45198;SDS011;30941;46.422;18.772;2023-08-06T00:52:17;9.10;;;6.22;;
45198;SDS011;30941;46.422;18.772;2023-08-06T00:54:43;11.48;;;6.57;;
45198;SDS011;30941;46.422;18.772;2023-08-06T00:57:08;13.32;;;7.25;;
45198;SDS011;30941;46.422;18.772;2023-08-06T00:59:34;10.90;;;6.57;;
45198;SDS011;30941;46.422;18.772;2023-08-06T01:02:00;12.07;;;7.43;;
45198;SDS011;30941;46.422;18.772;2023-08-06T01:04:25;11.13;;;7.53;;
45198;SDS011;30941;46.422;18.772;2023-08-06T01:10:27;9.68;;;6.88;;
45198;SDS011;30941;46.422;18.772;2023-08-06T01:12:54;9.35;;;6.95;;
45198;SDS011;30941;46.422;18.772;2023-08-06T01:15:31;11.10;;;8.05;;
45198;SDS011;30941;46.422;18.772;2023-08-06T01:18:00;11.77;;;8.43;;
45198;SDS011;30941;46.422;18.772;2023-08-06T01:20:27;11.60;;;8.45;;
45198;SDS011;30941;46.422;18.772;2023-08-06T01:22:53;13.18;;;8.57;;
45198;SDS011;30941;46.422;18.772;2023-08-06T01:25:19;10.55;;;7.78;;
45198;SDS011;30941;46.422;18.772;2023-08-06T01:27:46;12.48;;;7.68;;
45198;SDS011;30941;46.422;18.772;2023-08-06T01:30:16;10.85;;;8.50;;
45198;SDS011;30941;46.422;18.772;2023-08-06T01:32:44;12.10;;;8.60;;
45198;SDS011;30941;46.422;18.772;2023-08-06T01:35:12;14.68;;;9.40;;
45198;SDS011;30941;46.422;18.772;2023-08-06T01:37:39;15.25;;;9.38;;
45198;SDS011;30941;46.422;18.772;2023-08-06T01:40:06;13.35;;;9.32;;
45198;SDS011;30941;46.422;18.772;2023-08-06T01:42:34;12.50;;;9.13;;
45198;SDS011;30941;46.422;18.772;2023-08-06T01:45:00;14.30;;;10.50;;
45198;SDS011;30941;46.422;18.772;2023-08-06T01:47:25;18.30;;;10.40;;
45198;SDS011;30941;46.422;18.772;2023-08-06T01:49:50;15.38;;;10.50;;
45198;SDS011;30941;46.422;18.772;2023-08-06T01:52:16;11.65;;;9.45;;
45198;SDS011;30941;46.422;18.772;2023-08-06T01:54:41;12.88;;;9.63;;
45198;SDS011;30941;46.422;18.772;2023-08-06T01:57:06;11.05;;;9.13;;
45198;SDS011;30941;46.422;18.772;2023-08-06T01:59:32;12.20;;;8.57;;
45198;SDS011;30941;46.422;18.772;2023-08-06T02:01:57;13.27;;;8.93;;
45198;SDS011;30941;46.422;18.772;2023-08-06T02:04:23;15.05;;;10.35;;
45198;SDS011;30941;46.422;18.772;2023-08-06T02:06:48;12.38;;;9.50;;
45198;SDS011;30941;46.422;18.772;2023-08-06T02:09:13;12.35;;;9.07;;
45198;SDS011;30941;46.422;18.772;2023-08-06T02:11:39;11.52;;;9.70;;
45198;SDS011;30941;46.422;18.772;2023-08-06T02:14:04;13.15;;;9.35;;
45198;SDS011;30941;46.422;18.772;2023-08-06T02:16:29;11.48;;;9.18;;
45198;SDS011;30941;46.422;18.772;2023-08-06T02:18:55;11.75;;;9.15;;
45198;SDS011;30941;46.422;18.772;2023-08-06T02:21:20;11.98;;;9.07;;
45198;SDS011;30941;46.422;18.772;2023-08-06T02:23:45;11.77;;;8.85;;
45198;SDS011;30941;46.422;18.772;2023-08-06T02:26:11;12.77;;;9.90;;
45198;SDS011;30941;46.422;18.772;2023-08-06T02:28:36;15.38;;;10.35;;
45198;SDS011;30941;46.422;18.772;2023-08-06T02:31:01;13.65;;;10.25;;
45198;SDS011;30941;46.422;18.772;2023-08-06T02:33:27;15.82;;;9.98;;
45198;SDS011;30941;46.422;18.772;2023-08-06T02:35:58;12.48;;;10.02;;
45198;SDS011;30941;46.422;18.772;2023-08-06T02:38:25;14.30;;;10.43;;
45198;SDS011;30941;46.422;18.772;2023-08-06T02:40:50;12.70;;;9.95;;
45198;SDS011;30941;46.422;18.772;2023-08-06T02:43:15;12.82;;;9.68;;
45198;SDS011;30941;46.422;18.772;2023-08-06T02:45:41;14.13;;;11.02;;
45198;SDS011;30941;46.422;18.772;2023-08-06T02:48:06;17.65;;;11.40;;
45198;SDS011;30941;46.422;18.772;2023-08-06T02:50:37;13.35;;;10.40;;
45198;SDS011;30941;46.422;18.772;2023-08-06T02:53:04;14.67;;;10.30;;
45198;SDS011;30941;46.422;18.772;2023-08-06T02:55:29;15.13;;;10.20;;
45198;SDS011;30941;46.422;18.772;2023-08-06T02:57:54;13.85;;;9.23;;
45198;SDS011;30941;46.422;18.772;2023-08-06T03:00:20;14.57;;;9.52;;
45198;SDS011;30941;46.422;18.772;2023-08-06T03:02:45;18.80;;;9.77;;
45198;SDS011;30941;46.422;18.772;2023-08-06T03:05:10;13.65;;;9.43;;
45198;SDS011;30941;46.422;18.772;2023-08-06T03:07:36;12.55;;;8.82;;
45198;SDS011;30941;46.422;18.772;2023-08-06T03:10:02;11.60;;;8.07;;
45198;SDS011;30941;46.422;18.772;2023-08-06T03:12:28;12.82;;;8.23;;
45198;SDS011;30941;46.422;18.772;2023-08-06T03:14:53;10.93;;;6.70;;
45198;SDS011;30941;46.422;18.772;2023-08-06T03:17:19;10.38;;;6.47;;
45198;SDS011;30941;46.422;18.772;2023-08-06T03:19:44;11.52;;;6.68;;
45198;SDS011;30941;46.422;18.772;2023-08-06T03:22:09;10.05;;;5.80;;
45198;SDS011;30941;46.422;18.772;2023-08-06T03:24:35;10.63;;;5.70;;
45198;SDS011;30941;46.422;18.772;2023-08-06T03:27:00;8.57;;;5.35;;
45198;SDS011;30941;46.422;18.772;2023-08-06T03:29:26;6.82;;;4.75;;
45198;SDS011;30941;46.422;18.772;2023-08-06T03:31:51;9.48;;;5.03;;
45198;SDS011;30941;46.422;18.772;2023-08-06T03:34:17;7.60;;;4.38;;
45198;SDS011;30941;46.422;18.772;2023-08-06T03:36:42;7.82;;;4.15;;
45198;SDS011;30941;46.422;18.772;2023-08-06T03:39:08;6.88;;;3.60;;
45198;SDS011;30941;46.422;18.772;2023-08-06T03:41:33;5.75;;;3.92;;
45198;SDS011;30941;46.422;18.772;2023-08-06T03:43:59;6.55;;;4.00;;
45198;SDS011;30941;46.422;18.772;2023-08-06T03:46:25;5.03;;;3.42;;
45198;SDS011;30941;46.422;18.772;2023-08-06T03:48:51;4.63;;;3.30;;
45198;SDS011;30941;46.422;18.772;2023-08-06T03:51:16;5.00;;;3.00;;
45198;SDS011;30941;46.422;18.772;2023-08-06T03:53:42;4.65;;;2.97;;
45198;SDS011;30941;46.422;18.772;2023-08-06T03:56:07;5.40;;;2.67;;
45198;SDS011;30941;46.422;18.772;2023-08-06T03:58:32;5.10;;;2.80;;
45198;SDS011;30941;46.422;18.772;2023-08-06T04:01:01;4.38;;;2.72;;
45198;SDS011;30941;46.422;18.772;2023-08-06T04:03:27;9.52;;;4.10;;
45198;SDS011;30941;46.422;18.772;2023-08-06T04:05:53;5.85;;;2.30;;
45198;SDS011;30941;46.422;18.772;2023-08-06T04:08:19;4.97;;;2.58;;
45198;SDS011;30941;46.422;18.772;2023-08-06T04:10:44;3.45;;;2.28;;
45198;SDS011;30941;46.422;18.772;2023-08-06T04:13:10;7.38;;;2.65;;
45198;SDS011;30941;46.422;18.772;2023-08-06T04:15:35;4.65;;;2.30;;
45198;SDS011;30941;46.422;18.772;2023-08-06T04:18:00;5.32;;;2.60;;
45198;SDS011;30941;46.422;18.772;2023-08-06T04:20:26;5.32;;;2.22;;
45198;SDS011;30941;46.422;18.772;2023-08-06T04:22:54;4.10;;;2.03;;
45198;SDS011;30941;46.422;18.772;2023-08-06T04:25:19;3.75;;;1.90;;
45198;SDS011;30941;46.422;18.772;2023-08-06T04:27:49;2.90;;;2.13;;
45198;SDS011;30941;46.422;18.772;2023-08-06T04:30:14;2.13;;;1.75;;
45198;SDS011;30941;46.422;18.772;2023-08-06T04:32:40;4.82;;;2.17;;
45198;SDS011;30941;46.422;18.772;2023-08-06T04:35:05;3.45;;;1.83;;
45198;SDS011;30941;46.422;18.772;2023-08-06T04:37:31;1.80;;;1.60;;
45198;SDS011;30941;46.422;18.772;2023-08-06T04:39:56;3.40;;;1.70;;
45198;SDS011;30941;46.422;18.772;2023-08-06T04:42:22;1.52;;;1.40;;
45198;SDS011;30941;46.422;18.772;2023-08-06T04:44:47;3.72;;;1.40;;
45198;SDS011;30941;46.422;18.772;2023-08-06T04:47:13;1.33;;;1.23;;
45198;SDS011;30941;46.422;18.772;2023-08-06T04:49:38;2.97;;;1.30;;
45198;SDS011;30941;46.422;18.772;2023-08-06T04:52:03;1.05;;;0.98;;
45198;SDS011;30941;46.422;18.772;2023-08-06T04:54:29;1.90;;;1.38;;
45198;SDS011;30941;46.422;18.772;2023-08-06T04:56:54;2.08;;;1.00;;
45198;SDS011;30941;46.422;18.772;2023-08-06T04:59:20;1.30;;;1.10;;
45198;SDS011;30941;46.422;18.772;2023-08-06T05:01:45;1.60;;;1.00;;
45198;SDS011;30941;46.422;18.772;2023-08-06T05:04:10;2.45;;;0.88;;
45198;SDS011;30941;46.422;18.772;2023-08-06T05:06:36;1.25;;;1.15;;
45198;SDS011;30941;46.422;18.772;2023-08-06T05:09:03;0.90;;;0.90;;
45198;SDS011;30941;46.422;18.772;2023-08-06T05:11:29;1.88;;;0.90;;
45198;SDS011;30941;46.422;18.772;2023-08-06T05:13:55;4.32;;;1.13;;
45198;SDS011;30941;46.422;18.772;2023-08-06T05:16:20;0.98;;;0.88;;
45198;SDS011;30941;46.422;18.772;2023-08-06T05:18:45;2.05;;;0.80;;
45198;SDS011;30941;46.422;18.772;2023-08-06T05:21:11;0.88;;;0.70;;
45198;SDS011;30941;46.422;18.772;2023-08-06T05:23:36;1.92;;;0.93;;
45198;SDS011;30941;46.422;18.772;2023-08-06T05:26:01;0.98;;;0.90;;
45198;SDS011;30941;46.422;18.772;2023-08-06T05:28:27;0.60;;;0.60;;
45198;SDS011;30941;46.422;18.772;2023-08-06T05:30:52;0.70;;;0.68;;
45198;SDS011;30941;46.422;18.772;2023-08-06T05:33:18;3.05;;;0.80;;
45198;SDS011;30941;46.422;18.772;2023-08-06T05:35:43;1.92;;;0.70;;
45198;SDS011;30941;46.422;18.772;2023-08-06T05:38:08;0.80;;;0.68;;
45198;SDS011;30941;46.422;18.772;2023-08-06T05:40:34;0.68;;;0.68;;
45198;SDS011;30941;46.422;18.772;2023-08-06T05:42:59;1.92;;;0.57;;
45198;SDS011;30941;46.422;18.772;2023-08-06T05:45:25;0.50;;;0.50;;
45198;SDS011;30941;46.422;18.772;2023-08-06T05:47:50;4.13;;;0.63;;
45198;SDS011;30941;46.422;18.772;2023-08-06T05:50:16;1.40;;;0.80;;
45198;SDS011;30941;46.422;18.772;2023-08-06T05:52:41;1.10;;;1.00;;
45198;SDS011;30941;46.422;18.772;2023-08-06T05:55:07;2.53;;;1.17;;
45198;SDS011;30941;46.422;18.772;2023-08-06T05:57:32;1.45;;;0.80;;
45198;SDS011;30941;46.422;18.772;2023-08-06T05:59:58;1.73;;;0.32;;
45198;SDS011;30941;46.422;18.772;2023-08-06T06:02:23;0.30;;;0.30;;
45198;SDS011;30941;46.422;18.772;2023-08-06T06:04:48;0.30;;;0.30;;
45198;SDS011;30941;46.422;18.772;2023-08-06T06:07:14;1.02;;;0.65;;
45198;SDS011;30941;46.422;18.772;2023-08-06T06:09:39;1.25;;;0.50;;
45198;SDS011;30941;46.422;18.772;2023-08-06T06:12:05;0.30;;;0.30;;
45198;SDS011;30941;46.422;18.772;2023-08-06T06:14:31;0.55;;;0.38;;
45198;SDS011;30941;46.422;18.772;2023-08-06T06:16:56;0.40;;;0.30;;
45198;SDS011;30941;46.422;18.772;2023-08-06T06:19:22;0.28;;;0.28;;
45198;SDS011;30941;46.422;18.772;2023-08-06T06:21:47;1.80;;;0.50;;
45198;SDS011;30941;46.422;18.772;2023-08-06T06:24:12;0.28;;;0.28;;
45198;SDS011;30941;46.422;18.772;2023-08-06T06:26:38;0.20;;;0.20;;
45198;SDS011;30941;46.422;18.772;2023-08-06T06:29:04;0.55;;;0.20;;
45198;SDS011;30941;46.422;18.772;2023-08-06T06:31:29;0.30;;;0.30;;
45198;SDS011;30941;46.422;18.772;2023-08-06T06:33:54;0.38;;;0.15;;
45198;SDS011;30941;46.422;18.772;2023-08-06T06:36:20;2.15;;;0.30;;
45198;SDS011;30941;46.422;18.772;2023-08-06T06:38:45;1.35;;;0.40;;
45198;SDS011;30941;46.422;18.772;2023-08-06T06:41:11;0.57;;;0.30;;
45198;SDS011;30941;46.422;18.772;2023-08-06T06:43:37;0.30;;;0.30;;
45198;SDS011;30941;46.422;18.772;2023-08-06T06:46:04;2.17;;;0.25;;
45198;SDS011;30941;46.422;18.772;2023-08-06T06:48:31;0.20;;;0.20;;
45198;SDS011;30941;46.422;18.772;2023-08-06T06:50:57;0.30;;;0.30;;
45198;SDS011;30941;46.422;18.772;2023-08-06T06:53:23;1.75;;;0.35;;
45198;SDS011;30941;46.422;18.772;2023-08-06T06:56:02;0.47;;;0.47;;
45198;SDS011;30941;46.422;18.772;2023-08-06T06:58:28;0.68;;;0.40;;
45198;SDS011;30941;46.422;18.772;2023-08-06T07:00:53;0.30;;;0.30;;
45198;SDS011;30941;46.422;18.772;2023-08-06T07:03:22;0.47;;;0.47;;
45198;SDS011;30941;46.422;18.772;2023-08-06T07:05:47;1.25;;;0.68;;
45198;SDS011;30941;46.422;18.772;2023-08-06T07:08:14;0.70;;;0.50;;
45198;SDS011;30941;46.422;18.772;2023-08-06T07:10:40;1.08;;;0.57;;
45198;SDS011;30941;46.422;18.772;2023-08-06T07:13:06;3.30;;;0.43;;
45198;SDS011;30941;46.422;18.772;2023-08-06T07:15:31;0.82;;;0.50;;
45198;SDS011;30941;46.422;18.772;2023-08-06T07:17:57;0.47;;;0.47;;
45198;SDS011;30941;46.422;18.772;2023-08-06T07:20:22;1.00;;;0.30;;
45198;SDS011;30941;46.422;18.772;2023-08-06T07:22:47;0.93;;;0.40;;
45198;SDS011;30941;46.422;18.772;2023-08-06T07:25:13;0.60;;;0.60;;
45198;SDS011;30941;46.422;18.772;2023-08-06T07:27:38;0.45;;;0.32;;
45198;SDS011;30941;46.422;18.772;2023-08-06T07:30:04;0.20;;;0.20;;
45198;SDS011;30941;46.422;18.772;2023-08-06T07:32:30;0.57;;;0.57;;
45198;SDS011;30941;46.422;18.772;2023-08-06T07:34:56;0.30;;;0.30;;
45198;SDS011;30941;46.422;18.772;2023-08-06T07:37:24;1.90;;;0.60;;
45198;SDS011;30941;46.422;18.772;2023-08-06T07:39:50;0.45;;;0.45;;
45198;SDS011;30941;46.422;18.772;2023-08-06T07:42:15;0.30;;;0.30;;
45198;SDS011;30941;46.422;18.772;2023-08-06T07:44:41;0.45;;;0.40;;
45198;SDS011;30941;46.422;18.772;2023-08-06T07:47:06;0.85;;;0.32;;
45198;SDS011;30941;46.422;18.772;2023-08-06T07:49:31;0.82;;;0.50;;
45198;SDS011;30941;46.422;18.772;2023-08-06T07:51:57;1.05;;;0.60;;
45198;SDS011;30941;46.422;18.772;2023-08-06T07:54:22;0.40;;;0.40;;
45198;SDS011;30941;46.422;18.772;2023-08-06T07:56:49;0.50;;;0.50;;
45198;SDS011;30941;46.422;18.772;2023-08-06T07:59:14;0.30;;;0.30;;
45198;SDS011;30941;46.422;18.772;2023-08-06T08:01:40;0.43;;;0.43;;
45198;SDS011;30941;46.422;18.772;2023-08-06T08:04:05;0.55;;;0.55;;
45198;SDS011;30941;46.422;18.772;2023-08-06T08:06:31;4.72;;;1.38;;
45198;SDS011;30941;46.422;18.772;2023-08-06T08:08:56;2.83;;;1.80;;
45198;SDS011;30941;46.422;18.772;2023-08-06T08:11:21;1.35;;;0.90;;
45198;SDS011;30941;46.422;18.772;2023-08-06T08:13:47;2.85;;;1.60;;
45198;SDS011;30941;46.422;18.772;2023-08-06T08:16:12;3.17;;;1.52;;
45198;SDS011;30941;46.422;18.772;2023-08-06T08:18:38;1.30;;;1.17;;
45198;SDS011;30941;46.422;18.772;2023-08-06T08:21:03;1.20;;;1.10;;
45198;SDS011;30941;46.422;18.772;2023-08-06T08:23:28;1.48;;;1.23;;
45198;SDS011;30941;46.422;18.772;2023-08-06T08:25:56;5.75;;;3.70;;
45198;SDS011;30941;46.422;18.772;2023-08-06T08:28:21;2.13;;;1.30;;
45198;SDS011;30941;46.422;18.772;2023-08-06T08:30:47;1.60;;;1.15;;
45198;SDS011;30941;46.422;18.772;2023-08-06T08:33:12;1.20;;;1.00;;
45198;SDS011;30941;46.422;18.772;2023-08-06T08:35:37;1.95;;;1.10;;
45198;SDS011;30941;46.422;18.772;2023-08-06T08:38:03;1.15;;;1.00;;
45198;SDS011;30941;46.422;18.772;2023-08-06T08:40:32;3.83;;;1.42;;
45198;SDS011;30941;46.422;18.772;2023-08-06T08:42:58;2.25;;;1.45;;
45198;SDS011;30941;46.422;18.772;2023-08-06T08:45:26;2.10;;;1.13;;
45198;SDS011;30941;46.422;18.772;2023-08-06T08:47:51;2.35;;;1.33;;
45198;SDS011;30941;46.422;18.772;2023-08-06T08:50:16;1.15;;;1.00;;
45198;SDS011;30941;46.422;18.772;2023-08-06T08:52:44;1.30;;;1.08;;
45198;SDS011;30941;46.422;18.772;2023-08-06T08:55:14;5.07;;;2.03;;
45198;SDS011;30941;46.422;18.772;2023-08-06T08:57:40;7.65;;;4.03;;
45198;SDS011;30941;46.422;18.772;2023-08-06T09:00:06;2.35;;;1.70;;
45198;SDS011;30941;46.422;18.772;2023-08-06T09:02:32;1.73;;;1.48;;
45198;SDS011;30941;46.422;18.772;2023-08-06T09:04:58;1.33;;;0.93;;
45198;SDS011;30941;46.422;18.772;2023-08-06T09:07:27;1.83;;;1.15;;
45198;SDS011;30941;46.422;18.772;2023-08-06T09:09:53;2.03;;;1.35;;
45198;SDS011;30941;46.422;18.772;2023-08-06T09:12:18;4.07;;;1.80;;
45198;SDS011;30941;46.422;18.772;2023-08-06T09:14:43;2.92;;;1.52;;
45198;SDS011;30941;46.422;18.772;2023-08-06T09:17:09;3.38;;;1.85;;
45198;SDS011;30941;46.422;18.772;2023-08-06T09:19:41;2.63;;;1.98;;
45198;SDS011;30941;46.422;18.772;2023-08-06T09:22:11;2.40;;;1.50;;
45198;SDS011;30941;46.422;18.772;2023-08-06T09:24:38;2.53;;;1.35;;
45198;SDS011;30941;46.422;18.772;2023-08-06T09:27:11;2.55;;;1.77;;
45198;SDS011;30941;46.422;18.772;2023-08-06T09:29:39;2.45;;;1.58;;
45198;SDS011;30941;46.422;18.772;2023-08-06T09:32:08;2.58;;;1.70;;
45198;SDS011;30941;46.422;18.772;2023-08-06T09:34:33;2.08;;;1.52;;
45198;SDS011;30941;46.422;18.772;2023-08-06T09:36:59;2.53;;;1.58;;
45198;SDS011;30941;46.422;18.772;2023-08-06T09:39:28;2.00;;;1.40;;
45198;SDS011;30941;46.422;18.772;2023-08-06T09:41:55;2.70;;;1.00;;
45198;SDS011;30941;46.422;18.772;2023-08-06T09:44:22;1.25;;;0.90;;
45198;SDS011;30941;46.422;18.772;2023-08-06T09:49:15;1.58;;;1.30;;
45198;SDS011;30941;46.422;18.772;2023-08-06T09:51:42;4.30;;;1.45;;
45198;SDS011;30941;46.422;18.772;2023-08-06T09:54:09;2.42;;;1.23;;
45198;SDS011;30941;46.422;18.772;2023-08-06T09:56:39;3.28;;;1.75;;
45198;SDS011;30941;46.422;18.772;2023-08-06T09:59:05;3.20;;;1.85;;
45198;SDS011;30941;46.422;18.772;2023-08-06T10:01:32;5.45;;;3.30;;
45198;SDS011;30941;46.422;18.772;2023-08-06T10:03:58;3.58;;;2.35;;
45198;SDS011;30941;46.422;18.772;2023-08-06T10:06:24;2.65;;;1.42;;
45198;SDS011;30941;46.422;18.772;2023-08-06T10:08:51;2.03;;;1.40;;
45198;SDS011;30941;46.422;18.772;2023-08-06T10:11:17;1.70;;;1.30;;
45198;SDS011;30941;46.422;18.772;2023-08-06T10:13:42;1.55;;;1.30;;
45198;SDS011;30941;46.422;18.772;2023-08-06T10:16:08;2.38;;;1.17;;
45198;SDS011;30941;46.422;18.772;2023-08-06T10:18:35;2.53;;;1.10;;
45198;SDS011;30941;46.422;18.772;2023-08-06T10:21:02;0.90;;;0.82;;
45198;SDS011;30941;46.422;18.772;2023-08-06T10:23:33;1.88;;;1.10;;
45198;SDS011;30941;46.422;18.772;2023-08-06T10:26:00;1.10;;;0.98;;
45198;SDS011;30941;46.422;18.772;2023-08-06T10:28:33;3.05;;;1.30;;
45198;SDS011;30941;46.422;18.772;2023-08-06T10:31:00;2.08;;;1.10;;
45198;SDS011;30941;46.422;18.772;2023-08-06T10:33:26;1.63;;;1.08;;
45198;SDS011;30941;46.422;18.772;2023-08-06T10:36:06;1.48;;;1.10;;
45198;SDS011;30941;46.422;18.772;2023-08-06T10:38:34;1.80;;;1.05;;
45198;SDS011;30941;46.422;18.772;2023-08-06T10:41:02;3.58;;;1.23;;
45198;SDS011;30941;46.422;18.772;2023-08-06T10:45:55;1.90;;;1.00;;
45198;SDS011;30941;46.422;18.772;2023-08-06T10:51:02;0.85;;;0.85;;
45198;SDS011;30941;46.422;18.772;2023-08-06T10:53:28;1.45;;;1.10;;
45198;SDS011;30941;46.422;18.772;2023-08-06T10:55:54;2.53;;;0.95;;
45198;SDS011;30941;46.422;18.772;2023-08-06T10:58:19;1.13;;;0.93;;
45198;SDS011;30941;46.422;18.772;2023-08-06T11:00:45;2.15;;;1.60;;
45198;SDS011;30941;46.422;18.772;2023-08-06T11:03:10;1.52;;;1.17;;
45198;SDS011;30941;46.422;18.772;2023-08-06T11:05:36;1.20;;;1.10;;
45198;SDS011;30941;46.422;18.772;2023-08-06T11:08:01;0.90;;;0.80;;
45198;SDS011;30941;46.422;18.772;2023-08-06T11:10:27;6.10;;;2.47;;
45198;SDS011;30941;46.422;18.772;2023-08-06T11:12:53;1.33;;;1.20;;
45198;SDS011;30941;46.422;18.772;2023-08-06T11:15:19;1.20;;;1.05;;
45198;SDS011;30941;46.422;18.772;2023-08-06T11:17:45;1.25;;;0.95;;
45198;SDS011;30941;46.422;18.772;2023-08-06T11:20:11;1.15;;;1.02;;
45198;SDS011;30941;46.422;18.772;2023-08-06T11:22:36;2.97;;;0.98;;
45198;SDS011;30941;46.422;18.772;2023-08-06T11:25:02;1.20;;;0.98;;
45198;SDS011;30941;46.422;18.772;2023-08-06T11:27:28;1.52;;;1.00;;
45198;SDS011;30941;46.422;18.772;2023-08-06T11:29:54;3.97;;;1.00;;
45198;SDS011;30941;46.422;18.772;2023-08-06T11:32:19;1.67;;;1.10;;
45198;SDS011;30941;46.422;18.772;2023-08-06T11:34:45;2.90;;;1.15;;
45198;SDS011;30941;46.422;18.772;2023-08-06T11:37:10;1.23;;;1.00;;
45198;SDS011;30941;46.422;18.772;2023-08-06T11:39:36;1.30;;;0.90;;
45198;SDS011;30941;46.422;18.772;2023-08-06T11:42:03;1.52;;;1.00;;
45198;SDS011;30941;46.422;18.772;2023-08-06T11:44:32;1.58;;;1.13;;
45198;SDS011;30941;46.422;18.772;2023-08-06T11:47:00;2.45;;;1.27;;
45198;SDS011;30941;46.422;18.772;2023-08-06T11:52:12;1.13;;;0.80;;
45198;SDS011;30941;46.422;18.772;2023-08-06T11:54:39;1.13;;;0.88;;
45198;SDS011;30941;46.422;18.772;2023-08-06T11:57:08;1.60;;;1.20;;
45198;SDS011;30941;46.422;18.772;2023-08-06T11:59:33;1.45;;;1.05;;
45198;SDS011;30941;46.422;18.772;2023-08-06T12:02:03;1.08;;;0.75;;
45198;SDS011;30941;46.422;18.772;2023-08-06T12:04:30;0.82;;;0.82;;
45198;SDS011;30941;46.422;18.772;2023-08-06T12:07:04;3.97;;;1.48;;
45198;SDS011;30941;46.422;18.772;2023-08-06T12:09:30;3.75;;;1.30;;
45198;SDS011;30941;46.422;18.772;2023-08-06T12:11:55;1.60;;;1.23;;
45198;SDS011;30941;46.422;18.772;2023-08-06T12:14:21;3.08;;;1.40;;
45198;SDS011;30941;46.422;18.772;2023-08-06T12:16:46;2.40;;;1.50;;
45198;SDS011;30941;46.422;18.772;2023-08-06T12:19:11;3.50;;;1.67;;
45198;SDS011;30941;46.422;18.772;2023-08-06T12:21:37;2.85;;;1.67;;
45198;SDS011;30941;46.422;18.772;2023-08-06T12:24:02;2.90;;;1.52;;
45198;SDS011;30941;46.422;18.772;2023-08-06T12:26:28;2.00;;;1.30;;
45198;SDS011;30941;46.422;18.772;2023-08-06T12:28:53;2.25;;;1.20;;
45198;SDS011;30941;46.422;18.772;2023-08-06T12:31:20;1.33;;;0.95;;
45198;SDS011;30941;46.422;18.772;2023-08-06T12:33:45;2.50;;;1.35;;
45198;SDS011;30941;46.422;18.772;2023-08-06T12:36:10;3.30;;;1.67;;
45198;SDS011;30941;46.422;18.772;2023-08-06T12:38:36;3.47;;;1.30;;
45198;SDS011;30941;46.422;18.772;2023-08-06T12:41:01;2.65;;;1.60;;
45198;SDS011;30941;46.422;18.772;2023-08-06T12:43:27;4.93;;;1.60;;
45198;SDS011;30941;46.422;18.772;2023-08-06T12:45:52;2.75;;;1.23;;
45198;SDS011;30941;46.422;18.772;2023-08-06T12:48:18;5.18;;;1.67;;
45198;SDS011;30941;46.422;18.772;2023-08-06T12:50:44;2.65;;;1.50;;
45198;SDS011;30941;46.422;18.772;2023-08-06T12:53:09;1.60;;;1.33;;
45198;SDS011;30941;46.422;18.772;2023-08-06T12:55:36;3.22;;;1.23;;
45198;SDS011;30941;46.422;18.772;2023-08-06T12:58:02;1.73;;;1.25;;
45198;SDS011;30941;46.422;18.772;2023-08-06T13:00:28;5.43;;;1.33;;
45198;SDS011;30941;46.422;18.772;2023-08-06T13:02:53;1.85;;;0.98;;
45198;SDS011;30941;46.422;18.772;2023-08-06T13:05:19;0.90;;;0.90;;
45198;SDS011;30941;46.422;18.772;2023-08-06T13:07:45;2.97;;;1.00;;
45198;SDS011;30941;46.422;18.772;2023-08-06T13:10:10;1.80;;;1.17;;
45198;SDS011;30941;46.422;18.772;2023-08-06T13:12:36;1.90;;;1.73;;
45198;SDS011;30941;46.422;18.772;2023-08-06T13:15:02;1.98;;;1.30;;
45198;SDS011;30941;46.422;18.772;2023-08-06T13:17:28;2.95;;;2.35;;
45198;SDS011;30941;46.422;18.772;2023-08-06T13:19:53;2.55;;;1.60;;
45198;SDS011;30941;46.422;18.772;2023-08-06T13:22:19;2.65;;;1.30;;
45198;SDS011;30941;46.422;18.772;2023-08-06T13:24:45;1.33;;;1.08;;
45198;SDS011;30941;46.422;18.772;2023-08-06T13:27:10;2.78;;;1.27;;
45198;SDS011;30941;46.422;18.772;2023-08-06T13:29:36;3.42;;;1.33;;
45198;SDS011;30941;46.422;18.772;2023-08-06T13:32:02;1.63;;;1.45;;
45198;SDS011;30941;46.422;18.772;2023-08-06T13:34:28;2.33;;;1.58;;
45198;SDS011;30941;46.422;18.772;2023-08-06T13:36:54;3.42;;;1.40;;
45198;SDS011;30941;46.422;18.772;2023-08-06T13:39:19;2.60;;;1.15;;
45198;SDS011;30941;46.422;18.772;2023-08-06T13:41:45;2.10;;;1.20;;
45198;SDS011;30941;46.422;18.772;2023-08-06T13:44:11;1.15;;;0.88;;
45198;SDS011;30941;46.422;18.772;2023-08-06T13:46:39;2.05;;;1.30;;
45198;SDS011;30941;46.422;18.772;2023-08-06T13:49:05;1.23;;;0.95;;
45198;SDS011;30941;46.422;18.772;2023-08-06T13:51:30;1.45;;;0.95;;
45198;SDS011;30941;46.422;18.772;2023-08-06T13:53:56;2.00;;;1.25;;
45198;SDS011;30941;46.422;18.772;2023-08-06T13:56:22;2.50;;;1.33;;
45198;SDS011;30941;46.422;18.772;2023-08-06T13:58:48;1.40;;;0.95;;
45198;SDS011;30941;46.422;18.772;2023-08-06T14:01:16;2.25;;;1.60;;
45198;SDS011;30941;46.422;18.772;2023-08-06T14:03:42;1.52;;;1.38;;
45198;SDS011;30941;46.422;18.772;2023-08-06T14:06:08;2.00;;;1.15;;
45198;SDS011;30941;46.422;18.772;2023-08-06T14:08:33;1.65;;;1.50;;
45198;SDS011;30941;46.422;18.772;2023-08-06T14:10:59;1.73;;;1.15;;
45198;SDS011;30941;46.422;18.772;2023-08-06T14:13:25;3.45;;;1.70;;
45198;SDS011;30941;46.422;18.772;2023-08-06T14:15:51;2.53;;;1.73;;
45198;SDS011;30941;46.422;18.772;2023-08-06T14:18:16;2.90;;;1.80;;
45198;SDS011;30941;46.422;18.772;2023-08-06T14:20:43;2.45;;;1.73;;
45198;SDS011;30941;46.422;18.772;2023-08-06T14:23:09;3.80;;;2.17;;
45198;SDS011;30941;46.422;18.772;2023-08-06T14:25:35;3.65;;;1.50;;
45198;SDS011;30941;46.422;18.772;2023-08-06T14:28:01;2.75;;;1.90;;
45198;SDS011;30941;46.422;18.772;2023-08-06T14:30:26;2.08;;;1.48;;
45198;SDS011;30941;46.422;18.772;2023-08-06T14:32:52;2.35;;;1.90;;
45198;SDS011;30941;46.422;18.772;2023-08-06T14:35:18;2.13;;;1.50;;
45198;SDS011;30941;46.422;18.772;2023-08-06T14:37:47;3.97;;;2.03;;